Yorkville, Illinois
Current Conditions -  °F | °C
As of 6:52 AM on Sunday 21 Dec 2014 (Local Time) from KARR Reporting Station
Haze Haze  
Wind Chill: -4°   Ceiling: 2700
Heat Index:   Visibility: 5mi
Dew Point: -3°   Wind: 10mph
Humidity: 78%   Direction: 150°SSE
Pressure: 30.2"   Gusts: NA
Location:  41.64°N, 88.45°W
Report Text: KARR 211252Z 15009KT 5SM HZ BKN027 OVC039 01/M03 A3020 RMK AO2 SLP235 T00061028
Loading
Personal Weather Stations






























Interactive Weather Map New forecast layout! Learn more

10-Day Weather Forecast

Advertisements
Track Severe Weather on mobile